createdAt,value
2017-08-03T00:01:24.537Z,11.83
2017-08-03T00:03:51.387Z,12.83
2017-08-03T00:06:18.170Z,11.73
2017-08-03T00:08:44.670Z,13.70
2017-08-03T00:11:12.616Z,13.13
2017-08-03T00:13:38.855Z,12.73
2017-08-03T00:16:05.651Z,11.63
2017-08-03T00:18:32.138Z,13.30
2017-08-03T00:20:58.408Z,15.70
2017-08-03T00:23:25.651Z,9.73
2017-08-03T00:25:52.894Z,12.37
2017-08-03T00:28:19.132Z,11.73
2017-08-03T00:30:46.331Z,10.30
2017-08-03T00:33:13.366Z,12.60
2017-08-03T00:35:40.664Z,11.10
2017-08-03T00:38:07.392Z,8.83
2017-08-03T00:40:35.052Z,9.97
2017-08-03T00:43:02.046Z,8.00
2017-08-03T00:45:28.437Z,11.47
2017-08-03T00:47:55.424Z,9.27
2017-08-03T00:50:21.669Z,8.63
2017-08-03T00:52:48.741Z,9.63
2017-08-03T00:55:15.003Z,9.13
2017-08-03T00:57:41.558Z,8.83
2017-08-03T01:00:08.144Z,12.93
2017-08-03T01:02:34.410Z,11.47
2017-08-03T01:05:00.679Z,11.57
2017-08-03T01:07:27.209Z,9.60
2017-08-03T01:09:54.424Z,9.70
2017-08-03T01:12:20.926Z,9.63
2017-08-03T01:14:47.922Z,10.70
2017-08-03T01:17:14.209Z,9.90
2017-08-03T01:19:41.208Z,10.73
2017-08-03T01:22:07.471Z,9.70
2017-08-03T01:24:34.318Z,11.60
2017-08-03T01:27:01.249Z,11.20
2017-08-03T01:29:27.497Z,11.70
2017-08-03T01:31:54.526Z,10.97
2017-08-03T01:34:21.826Z,15.37
2017-08-03T01:36:48.779Z,7.73
2017-08-03T01:39:15.070Z,9.80
2017-08-03T01:41:42.288Z,9.70
2017-08-03T01:44:08.784Z,8.23
2017-08-03T01:46:36.809Z,7.30
2017-08-03T01:49:03.692Z,8.50
2017-08-03T01:51:30.659Z,8.00
2017-08-03T01:53:57.131Z,10.80
2017-08-03T01:56:24.117Z,11.77
2017-08-03T01:58:53.009Z,9.17
2017-08-03T02:01:20.145Z,10.17
2017-08-03T02:03:46.997Z,9.17
2017-08-03T02:06:14.264Z,9.77
2017-08-03T02:08:40.628Z,10.60
2017-08-03T02:11:07.312Z,10.07
2017-08-03T02:13:33.633Z,10.07
2017-08-03T02:16:00.556Z,11.93
2017-08-03T02:18:26.801Z,10.57
2017-08-03T02:20:54.344Z,10.13
2017-08-03T02:23:20.620Z,11.70
2017-08-03T02:25:46.936Z,10.73
2017-08-03T02:28:13.873Z,8.47
2017-08-03T02:30:41.226Z,8.53
2017-08-03T02:33:09.350Z,8.80
2017-08-03T02:35:35.587Z,8.83
2017-08-03T02:38:02.115Z,7.77
2017-08-03T02:40:28.351Z,10.87
2017-08-03T02:42:55.746Z,10.10
2017-08-03T02:45:22.017Z,9.57
2017-08-03T02:47:48.263Z,11.30
2017-08-03T02:50:14.508Z,9.93
2017-08-03T02:52:40.781Z,8.20
2017-08-03T02:55:07.951Z,8.27
2017-08-03T02:57:35.742Z,11.33
2017-08-03T03:00:03.414Z,7.13
2017-08-03T03:02:29.671Z,9.70
2017-08-03T03:04:55.941Z,8.30
2017-08-03T03:07:23.235Z,9.60
2017-08-03T03:09:51.589Z,9.63
2017-08-03T03:12:17.859Z,9.90
2017-08-03T03:14:44.111Z,14.40
2017-08-03T03:17:11.747Z,9.40
2017-08-03T03:19:39.789Z,10.67
2017-08-03T03:22:08.266Z,9.20
2017-08-03T03:24:34.496Z,8.73
2017-08-03T03:27:01.221Z,13.40
2017-08-03T03:29:27.499Z,9.60
2017-08-03T03:41:38.843Z,9.07
2017-08-03T03:44:06.292Z,8.57
2017-08-03T03:46:32.559Z,6.60
2017-08-03T03:48:58.814Z,7.40
2017-08-03T03:51:25.114Z,8.07
2017-08-03T03:53:52.068Z,10.07
2017-08-03T03:56:18.303Z,8.00
2017-08-03T03:58:44.568Z,10.83
2017-08-03T04:01:10.843Z,10.50
2017-08-03T04:03:37.998Z,8.77
2017-08-03T04:06:04.847Z,8.07
2017-08-03T04:08:33.114Z,10.60
2017-08-03T04:11:00.358Z,10.17
2017-08-03T04:13:26.607Z,9.80
2017-08-03T04:15:54.842Z,9.63
2017-08-03T04:18:21.784Z,10.83
2017-08-03T04:20:48.053Z,12.53
2017-08-03T04:23:14.343Z,10.33
2017-08-03T04:25:41.185Z,9.83
2017-08-03T04:28:08.290Z,9.37
2017-08-03T04:30:34.583Z,12.13
2017-08-03T04:33:02.277Z,11.50
2017-08-03T04:35:29.338Z,11.13
2017-08-03T04:37:55.598Z,11.33
2017-08-03T04:40:21.870Z,10.03
2017-08-03T04:42:48.884Z,8.97
2017-08-03T04:45:15.233Z,10.87
2017-08-03T04:47:42.494Z,12.50
2017-08-03T04:50:09.040Z,9.80
2017-08-03T04:52:36.306Z,10.23
2017-08-03T04:55:02.588Z,12.80
2017-08-03T04:57:28.873Z,10.03
2017-08-03T04:59:55.758Z,12.53
2017-08-03T05:02:22.384Z,8.87
2017-08-03T05:04:50.138Z,9.40
2017-08-03T05:07:16.398Z,10.83
2017-08-03T05:09:42.656Z,10.13
2017-08-03T05:12:08.887Z,9.20
2017-08-03T05:14:35.178Z,9.67
2017-08-03T05:17:01.947Z,8.40
2017-08-03T05:19:29.109Z,8.77
2017-08-03T05:21:56.357Z,9.30
2017-08-03T05:24:22.673Z,9.10
2017-08-03T05:26:50.159Z,8.87
2017-08-03T05:29:17.067Z,9.40
2017-08-03T05:31:43.967Z,10.50
2017-08-03T05:34:11.499Z,8.13
2017-08-03T05:36:38.561Z,9.77
2017-08-03T05:39:05.777Z,10.93
2017-08-03T05:41:33.506Z,8.63
2017-08-03T05:44:00.774Z,9.17
2017-08-03T05:46:27.066Z,8.77
2017-08-03T05:48:54.040Z,9.03
2017-08-03T05:51:20.952Z,8.63
2017-08-03T05:53:47.980Z,8.40
2017-08-03T05:56:14.247Z,8.27
2017-08-03T05:58:41.104Z,8.40
2017-08-03T06:01:07.446Z,9.43
2017-08-03T06:03:34.364Z,7.00
2017-08-03T06:06:00.659Z,8.03
2017-08-03T06:08:26.904Z,8.17
2017-08-03T06:10:54.303Z,6.30
2017-08-03T06:13:22.319Z,7.73
2017-08-03T06:15:49.550Z,8.10
2017-08-03T06:18:15.867Z,9.20
2017-08-03T06:20:43.499Z,7.80
2017-08-03T06:23:10.286Z,9.00
2017-08-03T06:25:37.186Z,7.40
2017-08-03T06:28:03.535Z,7.40
2017-08-03T06:30:29.801Z,7.43
2017-08-03T06:32:57.028Z,7.80
2017-08-03T06:35:23.783Z,8.10
2017-08-03T06:37:51.817Z,7.97
2017-08-03T06:40:18.779Z,9.17
2017-08-03T06:42:45.799Z,7.47
2017-08-03T06:45:12.075Z,7.43
2017-08-03T06:47:38.311Z,8.17
2017-08-03T06:50:04.554Z,9.33
2017-08-03T06:52:31.585Z,8.30
2017-08-03T06:54:57.826Z,7.37
2017-08-03T06:57:25.833Z,7.33
2017-08-03T06:59:52.104Z,7.47
2017-08-03T07:02:19.368Z,8.23
2017-08-03T07:04:45.876Z,7.90
2017-08-03T07:07:12.145Z,15.50
2017-08-03T07:09:40.145Z,7.67
2017-08-03T07:12:07.077Z,8.30
2017-08-03T07:14:33.328Z,7.07
2017-08-03T07:17:00.589Z,16.10
2017-08-03T07:19:27.561Z,7.07
2017-08-03T07:21:54.103Z,7.43
2017-08-03T07:24:20.391Z,7.83
2017-08-03T07:26:47.615Z,6.80
2017-08-03T07:29:13.870Z,6.13
2017-08-03T07:31:40.156Z,8.00
2017-08-03T07:34:06.424Z,8.47
2017-08-03T07:36:32.684Z,8.80
2017-08-03T07:38:59.609Z,9.07
2017-08-03T07:41:27.400Z,8.37
2017-08-03T07:43:53.682Z,7.40
2017-08-03T07:46:21.116Z,7.63
2017-08-03T07:48:47.529Z,7.57
2017-08-03T07:51:14.543Z,6.93
2017-08-03T07:53:40.987Z,9.50
2017-08-03T07:56:07.263Z,7.23
2017-08-03T07:58:33.941Z,9.73
2017-08-03T08:01:00.273Z,6.70
2017-08-03T08:03:27.109Z,6.50
2017-08-03T08:05:53.366Z,5.40
2017-08-03T08:08:20.464Z,6.70
2017-08-03T08:10:47.839Z,5.17
2017-08-03T08:13:14.177Z,7.83
2017-08-03T08:15:40.506Z,6.13
2017-08-03T08:18:06.785Z,9.60
2017-08-03T08:20:33.692Z,6.13
2017-08-03T08:22:59.983Z,5.10
2017-08-03T08:25:27.975Z,5.73
2017-08-03T08:47:25.816Z,7.40
2017-08-03T08:59:38.167Z,6.77
2017-08-03T09:02:04.463Z,5.83
2017-08-03T09:04:30.816Z,7.20
2017-08-03T09:06:57.655Z,6.90
2017-08-03T09:09:23.935Z,11.90
2017-08-03T09:11:51.171Z,9.20
2017-08-03T09:14:18.447Z,7.20
2017-08-03T09:16:45.968Z,8.50
2017-08-03T09:19:12.986Z,6.70
2017-08-03T09:21:39.420Z,6.97
2017-08-03T09:24:05.887Z,7.03
2017-08-03T09:26:32.181Z,11.90
2017-08-03T09:28:58.468Z,8.73
2017-08-03T09:31:26.074Z,8.10
2017-08-03T09:33:52.589Z,9.20
2017-08-03T09:36:19.735Z,7.47
2017-08-03T09:38:47.853Z,7.53
2017-08-03T09:41:15.543Z,6.73
2017-08-03T09:43:41.812Z,8.03
2017-08-03T09:46:08.064Z,6.73
2017-08-03T09:48:34.342Z,7.10
2017-08-03T09:51:00.616Z,8.07
2017-08-03T09:53:27.707Z,7.90
2017-08-03T09:55:54.734Z,9.80
2017-08-03T09:58:22.689Z,7.13
2017-08-03T10:00:49.738Z,7.00
2017-08-03T10:03:17.019Z,6.90
2017-08-03T10:05:44.810Z,8.70
2017-08-03T10:08:11.084Z,7.60
2017-08-03T10:10:38.406Z,6.30
2017-08-03T10:13:05.281Z,9.60
2017-08-03T10:15:31.774Z,7.90
2017-08-03T10:17:58.711Z,8.83
2017-08-03T10:20:25.831Z,8.23
2017-08-03T10:22:53.763Z,9.33
2017-08-03T10:25:20.795Z,7.73
2017-08-03T10:27:47.349Z,8.97
2017-08-03T10:30:13.622Z,7.13
2017-08-03T10:32:41.072Z,7.13
2017-08-03T10:35:07.892Z,8.33
2017-08-03T10:37:35.876Z,8.07
2017-08-03T10:40:03.446Z,10.50
2017-08-03T10:42:29.891Z,8.97
2017-08-03T10:44:57.236Z,8.37
2017-08-03T10:47:24.690Z,7.70
2017-08-03T10:49:52.916Z,7.93
2017-08-03T10:52:20.152Z,8.00
2017-08-03T10:54:48.177Z,8.23
2017-08-03T10:57:15.037Z,8.53
2017-08-03T10:59:42.262Z,8.03
2017-08-03T11:02:09.267Z,8.73
2017-08-03T11:04:35.787Z,8.50
2017-08-03T11:07:02.668Z,7.93
2017-08-03T11:09:29.554Z,9.20
2017-08-03T11:11:56.621Z,9.40
2017-08-03T11:14:22.885Z,7.90
2017-08-03T11:16:49.936Z,9.60
2017-08-03T11:19:17.799Z,10.87
2017-08-03T11:21:44.362Z,8.23
2017-08-03T11:24:11.132Z,8.30
2017-08-03T11:26:38.209Z,11.00
2017-08-03T11:29:05.500Z,11.60
2017-08-03T11:31:35.328Z,9.63
2017-08-03T11:34:01.590Z,9.17
2017-08-03T11:36:27.868Z,8.50
2017-08-03T11:38:54.903Z,8.97
2017-08-03T11:41:21.972Z,8.53
2017-08-03T11:43:48.862Z,10.43
2017-08-03T11:46:17.149Z,9.97
2017-08-03T11:48:45.393Z,9.67
2017-08-03T11:51:11.962Z,10.87
2017-08-03T11:53:38.311Z,9.00
2017-08-03T11:56:05.334Z,12.47
2017-08-03T11:58:32.714Z,9.33
2017-08-03T12:01:00.736Z,9.63
2017-08-03T12:03:27.044Z,10.47
2017-08-03T12:05:53.322Z,12.70
2017-08-03T12:08:19.625Z,10.60
2017-08-03T12:10:46.522Z,10.87
2017-08-03T12:13:13.420Z,12.63
2017-08-03T12:15:40.034Z,11.27
2017-08-03T12:18:08.308Z,9.30
2017-08-03T12:20:34.655Z,10.90
2017-08-03T12:23:00.957Z,10.70
2017-08-03T12:25:27.294Z,9.30
2017-08-03T12:27:53.544Z,11.73
2017-08-03T12:30:20.420Z,10.70
2017-08-03T12:32:47.212Z,9.37
2017-08-03T12:35:14.000Z,10.63
2017-08-03T12:37:40.746Z,9.83
2017-08-03T12:40:08.816Z,8.70
2017-08-03T12:42:35.072Z,9.93
2017-08-03T12:45:02.124Z,8.83
2017-08-03T12:47:28.921Z,10.27
2017-08-03T12:49:56.187Z,9.47
2017-08-03T12:52:22.901Z,12.30
2017-08-03T12:54:49.897Z,10.70
2017-08-03T12:57:16.418Z,10.60
2017-08-03T12:59:43.821Z,9.13
2017-08-03T13:02:11.523Z,11.33
2017-08-03T13:04:38.007Z,12.60
2017-08-03T13:07:04.287Z,10.30
2017-08-03T13:09:31.011Z,11.63
2017-08-03T13:11:57.294Z,9.47
2017-08-03T13:14:23.560Z,10.33
2017-08-03T13:16:50.471Z,11.73
2017-08-03T13:19:16.769Z,13.30
2017-08-03T13:21:43.979Z,12.53
2017-08-03T13:24:10.886Z,9.83
2017-08-03T13:26:37.497Z,9.03
2017-08-03T13:29:05.046Z,8.00
2017-08-03T13:31:31.344Z,8.90
2017-08-03T13:33:57.640Z,10.30
2017-08-03T13:36:23.931Z,10.23
2017-08-03T13:38:50.919Z,8.83
2017-08-03T13:41:18.038Z,8.83
2017-08-03T13:43:44.337Z,8.90
2017-08-03T13:46:11.548Z,7.40
2017-08-03T13:48:37.847Z,9.90
2017-08-03T13:51:04.200Z,33.23
2017-08-03T13:53:31.799Z,30.93
2017-08-03T13:55:58.088Z,15.43
2017-08-03T13:58:25.397Z,26.67
2017-08-03T14:00:51.696Z,19.97
2017-08-03T14:03:18.044Z,33.07
2017-08-03T14:05:44.955Z,15.27
2017-08-03T14:08:11.939Z,42.77
2017-08-03T14:10:38.235Z,40.83
2017-08-03T14:13:04.509Z,50.63
2017-08-03T14:15:31.010Z,29.00
2017-08-03T14:17:57.359Z,57.83
2017-08-03T14:20:23.676Z,54.57
2017-08-03T14:22:49.929Z,19.00
2017-08-03T14:25:16.203Z,42.93
2017-08-03T14:27:44.202Z,20.43
2017-08-03T14:30:10.471Z,32.43
2017-08-03T14:32:36.749Z,12.53
2017-08-03T14:35:03.661Z,23.87
2017-08-03T14:37:29.971Z,20.07
2017-08-03T14:39:56.473Z,24.17
2017-08-03T14:42:22.750Z,15.93
2017-08-03T14:44:50.710Z,15.47
2017-08-03T14:47:16.995Z,22.07
2017-08-03T14:49:43.246Z,14.17
2017-08-03T14:52:09.493Z,14.50
2017-08-03T14:54:36.314Z,14.63
2017-08-03T14:57:03.548Z,10.53
2017-08-03T14:59:29.846Z,12.13
2017-08-03T15:01:56.474Z,12.07
2017-08-03T15:04:23.486Z,10.83
2017-08-03T15:06:49.982Z,11.13
2017-08-03T15:09:17.303Z,10.13
2017-08-03T15:11:45.342Z,15.63
2017-08-03T15:14:11.763Z,15.43
2017-08-03T15:16:39.080Z,13.43
2017-08-03T15:19:05.929Z,10.70
2017-08-03T15:21:32.218Z,11.13
2017-08-03T15:23:59.281Z,10.90
2017-08-03T15:26:27.796Z,11.57
2017-08-03T15:28:54.770Z,10.13
2017-08-03T15:31:21.121Z,9.80
2017-08-03T15:33:47.380Z,13.60
2017-08-03T15:36:13.672Z,9.50
2017-08-03T15:38:40.592Z,10.27
2017-08-03T15:41:07.604Z,9.80
2017-08-03T15:43:33.863Z,12.50
2017-08-03T15:46:00.151Z,12.93
2017-08-03T15:48:27.037Z,12.93
2017-08-03T15:50:53.404Z,10.40
2017-08-03T15:53:21.272Z,12.87
2017-08-03T15:55:48.143Z,11.87
2017-08-03T15:58:14.958Z,9.13
2017-08-03T16:00:41.218Z,10.40
2017-08-03T16:03:08.622Z,10.37
2017-08-03T16:05:34.935Z,11.87
2017-08-03T16:08:01.784Z,10.70
2017-08-03T16:10:28.049Z,12.50
2017-08-03T16:12:55.390Z,11.13
2017-08-03T16:15:22.434Z,14.83
2017-08-03T16:17:48.736Z,12.50
2017-08-03T16:20:15.060Z,13.13
2017-08-03T16:22:41.940Z,12.60
2017-08-03T16:25:08.628Z,9.40
2017-08-03T16:27:35.472Z,9.43
2017-08-03T16:30:01.782Z,9.07
2017-08-03T16:32:28.482Z,10.33
2017-08-03T16:34:54.730Z,14.70
2017-08-03T16:37:21.823Z,10.70
2017-08-03T16:39:48.638Z,11.13
2017-08-03T16:42:15.201Z,9.73
2017-08-03T16:44:42.321Z,11.97
2017-08-03T16:47:09.239Z,8.97
2017-08-03T16:49:35.513Z,9.33
2017-08-03T16:52:02.824Z,9.17
2017-08-03T16:54:29.347Z,14.97
2017-08-03T16:56:56.209Z,8.83
2017-08-03T16:59:23.191Z,10.13
2017-08-03T17:01:50.160Z,11.10
2017-08-03T17:04:16.442Z,12.57
2017-08-03T17:06:43.285Z,10.77
2017-08-03T17:09:10.307Z,13.90
2017-08-03T17:11:37.142Z,8.13
2017-08-03T17:14:03.980Z,16.03
2017-08-03T17:16:31.228Z,10.93
2017-08-03T17:18:58.494Z,9.63
2017-08-03T17:21:25.183Z,9.80
2017-08-03T17:23:52.606Z,9.60
2017-08-03T17:26:20.297Z,15.53
2017-08-03T17:28:48.340Z,11.87
2017-08-03T17:31:15.933Z,13.97
2017-08-03T17:33:42.221Z,13.33
2017-08-03T17:36:09.225Z,15.80
2017-08-03T17:38:35.510Z,12.90
2017-08-03T17:41:02.598Z,11.70
2017-08-03T17:43:29.023Z,12.33
2017-08-03T17:45:55.373Z,12.23
2017-08-03T17:48:21.711Z,13.47
2017-08-03T17:50:48.649Z,16.90
2017-08-03T17:53:14.997Z,14.10
2017-08-03T17:55:42.727Z,11.80
2017-08-03T17:58:09.080Z,10.87
2017-08-03T18:00:35.521Z,13.10
2017-08-03T18:03:02.715Z,15.10
2017-08-03T18:05:29.041Z,11.67
2017-08-03T18:07:55.651Z,13.50
2017-08-03T18:10:21.961Z,11.23
2017-08-03T18:12:48.587Z,12.53
2017-08-03T18:15:15.887Z,15.20
2017-08-03T18:17:42.996Z,12.07
2017-08-03T18:20:10.252Z,9.90
2017-08-03T18:22:36.509Z,17.40
2017-08-03T18:25:03.633Z,13.27
2017-08-03T18:27:30.469Z,10.70
2017-08-03T18:29:56.752Z,10.20
2017-08-03T18:32:23.027Z,14.30
2017-08-03T18:34:49.424Z,11.50
2017-08-03T18:37:15.867Z,10.47
2017-08-03T18:39:42.503Z,9.00
2017-08-03T18:42:08.822Z,12.03
2017-08-03T18:44:35.220Z,12.10
2017-08-03T18:47:03.203Z,10.40
2017-08-03T18:49:29.984Z,12.10
2017-08-03T18:51:56.697Z,16.77
2017-08-03T18:54:23.662Z,12.93
2017-08-03T18:56:49.929Z,11.73
2017-08-03T18:59:16.534Z,10.70
2017-08-03T19:01:43.718Z,11.73
2017-08-03T19:04:10.177Z,11.87
2017-08-03T19:06:37.273Z,11.80
2017-08-03T19:09:03.610Z,12.20
2017-08-03T19:11:30.081Z,18.23
2017-08-03T19:13:57.128Z,12.33
2017-08-03T19:16:24.732Z,12.43
2017-08-03T19:18:51.044Z,10.93
2017-08-03T19:21:17.379Z,17.17
2017-08-03T19:23:43.680Z,12.23
2017-08-03T19:26:10.736Z,10.00
2017-08-03T19:28:37.008Z,15.10
2017-08-03T19:31:03.291Z,10.43
2017-08-03T19:33:30.316Z,9.07
2017-08-03T19:35:57.235Z,12.23
2017-08-03T19:38:23.488Z,15.00
2017-08-03T19:40:49.814Z,16.57
2017-08-03T19:43:16.705Z,12.10
2017-08-03T19:45:42.989Z,12.47
2017-08-03T19:48:09.282Z,12.23
2017-08-03T19:50:35.623Z,10.47
2017-08-03T19:53:03.487Z,11.77
2017-08-03T19:55:30.304Z,14.67
2017-08-03T19:57:56.609Z,11.63
2017-08-03T20:00:23.889Z,14.20
2017-08-03T20:02:50.431Z,15.00
2017-08-03T20:05:18.128Z,13.00
2017-08-03T20:07:52.562Z,10.47
2017-08-03T20:10:21.488Z,10.90
2017-08-03T20:12:47.856Z,12.00
2017-08-03T20:15:15.500Z,12.33
2017-08-03T20:17:42.842Z,15.73
2017-08-03T20:20:10.106Z,14.37
2017-08-03T20:22:36.395Z,20.80
2017-08-03T20:25:04.053Z,15.13
2017-08-03T20:27:30.349Z,18.63
2017-08-03T20:29:56.643Z,15.37
2017-08-03T20:32:23.544Z,14.27
2017-08-03T20:34:50.572Z,16.17
2017-08-03T20:37:16.863Z,15.07
2017-08-03T20:39:44.096Z,13.80
2017-08-03T20:42:11.426Z,14.63
2017-08-03T20:44:37.692Z,14.60
2017-08-03T20:47:04.043Z,10.83
2017-08-03T20:49:30.492Z,13.10
2017-08-03T20:51:56.759Z,18.87
2017-08-03T20:54:24.777Z,10.60
2017-08-03T20:56:51.084Z,12.50
2017-08-03T20:59:18.010Z,16.23
2017-08-03T21:01:45.395Z,12.20
2017-08-03T21:04:11.682Z,14.50
2017-08-03T21:06:38.695Z,17.73
2017-08-03T21:09:04.997Z,15.40
2017-08-03T21:11:31.850Z,13.80
2017-08-03T21:13:58.583Z,15.63
2017-08-03T21:16:25.676Z,13.73
2017-08-03T21:18:52.563Z,14.10
2017-08-03T21:21:20.921Z,22.20
2017-08-03T21:23:48.617Z,17.60
2017-08-03T21:26:14.888Z,15.27
2017-08-03T21:28:41.208Z,14.30
2017-08-03T21:31:07.537Z,15.93
2017-08-03T21:33:34.721Z,14.00
2017-08-03T21:36:02.352Z,10.70
2017-08-03T21:38:29.595Z,12.00
2017-08-03T21:40:56.507Z,13.70
2017-08-03T21:43:23.906Z,16.70
2017-08-03T21:45:51.200Z,17.07
2017-08-03T21:48:17.488Z,20.67
2017-08-03T21:50:44.286Z,15.97
2017-08-03T21:53:11.630Z,24.20
2017-08-03T21:55:38.899Z,18.80
2017-08-03T21:58:05.315Z,15.67
2017-08-03T22:00:44.576Z,16.27
2017-08-03T22:03:10.830Z,15.83
2017-08-03T22:05:38.142Z,16.97
2017-08-03T22:08:04.454Z,15.83
2017-08-03T22:10:30.712Z,13.27
2017-08-03T22:12:56.977Z,15.63
2017-08-03T22:15:23.271Z,20.73
2017-08-03T22:17:50.552Z,15.13
2017-08-03T22:20:17.795Z,18.97
2017-08-03T22:22:44.230Z,15.17
2017-08-03T22:25:11.057Z,14.33
2017-08-03T22:27:38.272Z,12.43
2017-08-03T22:30:04.549Z,15.80
2017-08-03T22:32:30.838Z,13.53
2017-08-03T22:34:57.254Z,18.80
2017-08-03T22:37:24.892Z,13.30
2017-08-03T22:39:51.735Z,15.83
2017-08-03T22:42:18.765Z,11.60
2017-08-03T22:44:45.646Z,12.30
2017-08-03T22:47:12.932Z,13.77
2017-08-03T22:49:39.188Z,15.77
2017-08-03T22:52:06.046Z,13.83
2017-08-03T22:54:32.315Z,12.67
2017-08-03T22:56:59.133Z,13.50
2017-08-03T22:59:25.651Z,12.10
2017-08-03T23:01:53.082Z,14.17
2017-08-03T23:04:19.938Z,16.47
2017-08-03T23:06:46.594Z,14.67
2017-08-03T23:09:13.821Z,11.50
2017-08-03T23:11:40.110Z,18.20
2017-08-03T23:14:06.394Z,14.33
2017-08-03T23:16:32.961Z,14.23
2017-08-03T23:19:00.218Z,13.47
2017-08-03T23:21:27.134Z,13.23
2017-08-03T23:23:54.007Z,10.77
2017-08-03T23:26:20.263Z,17.13
2017-08-03T23:28:47.538Z,14.20
2017-08-03T23:31:14.352Z,11.20
2017-08-03T23:33:40.957Z,13.90
2017-08-03T23:36:08.359Z,12.07
2017-08-03T23:38:36.349Z,15.37
2017-08-03T23:41:02.633Z,15.40
2017-08-03T23:43:28.954Z,15.60
2017-08-03T23:45:56.162Z,21.03
2017-08-03T23:48:22.424Z,13.87
2017-08-03T23:50:48.703Z,13.00
2017-08-03T23:53:14.979Z,14.73
2017-08-03T23:55:42.310Z,15.63
2017-08-03T23:58:09.999Z,12.70
